Harmon, Oklahoma
Current Conditions -  °F | °C
As of 9:53 AM on Saturday 22 Nov 2014 (Local Time) from KGAG Reporting Station
Scattered Clouds Scattered Clouds  
Wind Chill: 51°   Ceiling: Unl
Heat Index: 51°   Visibility: 8mi
Dew Point: 50°   Wind: 9mph
Humidity: 96%   Direction: 200°SSW
Pressure: 29.92"   Gusts: NA
Location:  36.0611°N, 99.7076°W
Report Text: KGAG 221553Z AUTO 20008KT 8SM SCT004 11/10 A2992 RMK AO2 SLP130 T01060100
Loading
Personal Weather Stations






























Interactive Weather Map New forecast layout! Learn more

10-Day Weather Forecast

Advertisements
Track Severe Weather on mobile